sensor_id;sensor_type;location;lat;lon;timestamp;P1;durP1;ratioP1;P2;durP2;ratioP2
23608;SDS011;11982;50.810;4.442;2023-09-07T00:01:29;21.48;;;12.95;;
23608;SDS011;11982;50.810;4.442;2023-09-07T00:03:56;21.05;;;13.52;;
23608;SDS011;11982;50.810;4.442;2023-09-07T00:06:22;21.65;;;13.38;;
23608;SDS011;11982;50.810;4.442;2023-09-07T00:08:47;19.13;;;13.10;;
23608;SDS011;11982;50.810;4.442;2023-09-07T00:11:13;21.70;;;12.80;;
23608;SDS011;11982;50.810;4.442;2023-09-07T00:13:39;18.00;;;13.70;;
23608;SDS011;11982;50.810;4.442;2023-09-07T00:16:05;23.13;;;13.63;;
23608;SDS011;11982;50.810;4.442;2023-09-07T00:18:31;24.40;;;13.77;;
23608;SDS011;11982;50.810;4.442;2023-09-07T00:20:58;25.13;;;13.80;;
23608;SDS011;11982;50.810;4.442;2023-09-07T00:23:25;16.48;;;12.95;;
23608;SDS011;11982;50.810;4.442;2023-09-07T00:25:50;21.90;;;14.13;;
23608;SDS011;11982;50.810;4.442;2023-09-07T00:28:16;25.52;;;13.70;;
23608;SDS011;11982;50.810;4.442;2023-09-07T00:30:42;20.80;;;14.27;;
23608;SDS011;11982;50.810;4.442;2023-09-07T00:33:08;20.85;;;14.05;;
23608;SDS011;11982;50.810;4.442;2023-09-07T00:35:34;21.40;;;14.50;;
23608;SDS011;11982;50.810;4.442;2023-09-07T00:38:00;18.98;;;14.27;;
23608;SDS011;11982;50.810;4.442;2023-09-07T00:40:25;26.35;;;14.68;;
23608;SDS011;11982;50.810;4.442;2023-09-07T00:42:51;23.63;;;14.10;;
23608;SDS011;11982;50.810;4.442;2023-09-07T00:45:17;23.17;;;14.52;;
23608;SDS011;11982;50.810;4.442;2023-09-07T00:47:43;20.73;;;13.90;;
23608;SDS011;11982;50.810;4.442;2023-09-07T00:50:10;19.98;;;14.02;;
23608;SDS011;11982;50.810;4.442;2023-09-07T00:52:42;17.70;;;13.95;;
23608;SDS011;11982;50.810;4.442;2023-09-07T00:55:08;25.30;;;15.07;;
23608;SDS011;11982;50.810;4.442;2023-09-07T00:57:35;19.95;;;14.13;;
23608;SDS011;11982;50.810;4.442;2023-09-07T01:00:02;26.48;;;15.88;;
23608;SDS011;11982;50.810;4.442;2023-09-07T01:02:30;26.00;;;14.85;;
23608;SDS011;11982;50.810;4.442;2023-09-07T01:04:56;24.08;;;15.48;;
23608;SDS011;11982;50.810;4.442;2023-09-07T01:07:26;18.73;;;13.77;;
23608;SDS011;11982;50.810;4.442;2023-09-07T01:09:57;22.88;;;14.95;;
23608;SDS011;11982;50.810;4.442;2023-09-07T01:12:25;21.63;;;13.95;;
23608;SDS011;11982;50.810;4.442;2023-09-07T01:14:51;20.48;;;15.02;;
23608;SDS011;11982;50.810;4.442;2023-09-07T01:17:18;24.27;;;14.27;;
23608;SDS011;11982;50.810;4.442;2023-09-07T01:19:46;21.77;;;14.38;;
23608;SDS011;11982;50.810;4.442;2023-09-07T01:22:15;25.50;;;14.25;;
23608;SDS011;11982;50.810;4.442;2023-09-07T01:24:42;23.90;;;13.65;;
23608;SDS011;11982;50.810;4.442;2023-09-07T01:27:09;28.25;;;15.23;;
23608;SDS011;11982;50.810;4.442;2023-09-07T01:29:35;25.67;;;14.93;;
23608;SDS011;11982;50.810;4.442;2023-09-07T01:32:02;24.48;;;14.85;;
23608;SDS011;11982;50.810;4.442;2023-09-07T01:34:29;22.42;;;14.68;;
23608;SDS011;11982;50.810;4.442;2023-09-07T01:36:54;23.80;;;14.27;;
23608;SDS011;11982;50.810;4.442;2023-09-07T01:39:20;23.33;;;14.50;;
23608;SDS011;11982;50.810;4.442;2023-09-07T01:41:47;22.27;;;14.02;;
23608;SDS011;11982;50.810;4.442;2023-09-07T01:44:13;22.38;;;14.88;;
23608;SDS011;11982;50.810;4.442;2023-09-07T01:46:38;20.05;;;13.57;;
23608;SDS011;11982;50.810;4.442;2023-09-07T01:49:04;19.83;;;14.15;;
23608;SDS011;11982;50.810;4.442;2023-09-07T01:51:30;25.65;;;14.80;;
23608;SDS011;11982;50.810;4.442;2023-09-07T01:53:55;18.90;;;13.70;;
23608;SDS011;11982;50.810;4.442;2023-09-07T01:56:21;23.33;;;14.88;;
23608;SDS011;11982;50.810;4.442;2023-09-07T01:58:47;30.08;;;15.07;;
23608;SDS011;11982;50.810;4.442;2023-09-07T02:01:46;22.38;;;14.07;;
23608;SDS011;11982;50.810;4.442;2023-09-07T02:04:05;22.23;;;14.38;;
23608;SDS011;11982;50.810;4.442;2023-09-07T02:06:31;25.92;;;14.43;;
23608;SDS011;11982;50.810;4.442;2023-09-07T02:08:57;19.83;;;13.65;;
23608;SDS011;11982;50.810;4.442;2023-09-07T02:11:22;22.17;;;15.30;;
23608;SDS011;11982;50.810;4.442;2023-09-07T02:13:48;25.60;;;14.55;;
23608;SDS011;11982;50.810;4.442;2023-09-07T02:16:14;27.73;;;13.02;;
23608;SDS011;11982;50.810;4.442;2023-09-07T02:18:40;19.58;;;13.60;;
23608;SDS011;11982;50.810;4.442;2023-09-07T02:21:09;22.23;;;13.85;;
23608;SDS011;11982;50.810;4.442;2023-09-07T02:23:35;25.20;;;14.82;;
23608;SDS011;11982;50.810;4.442;2023-09-07T02:26:02;20.23;;;14.68;;
23608;SDS011;11982;50.810;4.442;2023-09-07T02:28:29;25.90;;;14.60;;
23608;SDS011;11982;50.810;4.442;2023-09-07T02:30:54;29.65;;;15.13;;
23608;SDS011;11982;50.810;4.442;2023-09-07T02:33:27;27.63;;;15.88;;
23608;SDS011;11982;50.810;4.442;2023-09-07T02:35:53;29.17;;;14.82;;
23608;SDS011;11982;50.810;4.442;2023-09-07T02:38:18;24.98;;;15.05;;
23608;SDS011;11982;50.810;4.442;2023-09-07T02:40:44;23.38;;;14.63;;
23608;SDS011;11982;50.810;4.442;2023-09-07T02:43:10;22.00;;;14.55;;
23608;SDS011;11982;50.810;4.442;2023-09-07T02:45:36;22.90;;;15.02;;
23608;SDS011;11982;50.810;4.442;2023-09-07T02:48:03;26.38;;;16.05;;
23608;SDS011;11982;50.810;4.442;2023-09-07T02:50:31;25.55;;;15.15;;
23608;SDS011;11982;50.810;4.442;2023-09-07T02:52:58;28.23;;;16.42;;
23608;SDS011;11982;50.810;4.442;2023-09-07T02:55:25;23.42;;;14.80;;
23608;SDS011;11982;50.810;4.442;2023-09-07T02:57:51;24.77;;;15.23;;
23608;SDS011;11982;50.810;4.442;2023-09-07T03:00:16;30.20;;;16.45;;
23608;SDS011;11982;50.810;4.442;2023-09-07T03:02:43;24.85;;;15.50;;
23608;SDS011;11982;50.810;4.442;2023-09-07T03:05:09;24.25;;;15.52;;
23608;SDS011;11982;50.810;4.442;2023-09-07T03:07:35;22.38;;;16.05;;
23608;SDS011;11982;50.810;4.442;2023-09-07T03:10:01;26.27;;;15.75;;
23608;SDS011;11982;50.810;4.442;2023-09-07T03:12:27;20.30;;;14.52;;
23608;SDS011;11982;50.810;4.442;2023-09-07T03:14:53;24.42;;;15.23;;
23608;SDS011;11982;50.810;4.442;2023-09-07T03:17:19;19.90;;;14.35;;
23608;SDS011;11982;50.810;4.442;2023-09-07T03:19:46;21.73;;;14.88;;
23608;SDS011;11982;50.810;4.442;2023-09-07T03:22:12;22.00;;;14.77;;
23608;SDS011;11982;50.810;4.442;2023-09-07T03:24:38;24.98;;;15.90;;
23608;SDS011;11982;50.810;4.442;2023-09-07T03:27:04;21.10;;;15.13;;
23608;SDS011;11982;50.810;4.442;2023-09-07T03:29:33;30.15;;;16.65;;
23608;SDS011;11982;50.810;4.442;2023-09-07T03:32:00;22.50;;;15.32;;
23608;SDS011;11982;50.810;4.442;2023-09-07T03:34:26;19.83;;;14.75;;
23608;SDS011;11982;50.810;4.442;2023-09-07T03:36:52;24.60;;;16.52;;
23608;SDS011;11982;50.810;4.442;2023-09-07T03:39:18;25.08;;;15.93;;
23608;SDS011;11982;50.810;4.442;2023-09-07T03:41:46;31.00;;;16.35;;
23608;SDS011;11982;50.810;4.442;2023-09-07T03:44:12;27.58;;;15.95;;
23608;SDS011;11982;50.810;4.442;2023-09-07T03:46:38;25.95;;;15.85;;
23608;SDS011;11982;50.810;4.442;2023-09-07T03:49:03;22.27;;;15.02;;
23608;SDS011;11982;50.810;4.442;2023-09-07T03:51:29;21.58;;;15.18;;
23608;SDS011;11982;50.810;4.442;2023-09-07T03:53:55;24.02;;;15.32;;
23608;SDS011;11982;50.810;4.442;2023-09-07T03:56:20;28.30;;;15.07;;
23608;SDS011;11982;50.810;4.442;2023-09-07T03:58:46;21.05;;;14.13;;
23608;SDS011;11982;50.810;4.442;2023-09-07T04:01:12;20.92;;;14.93;;
23608;SDS011;11982;50.810;4.442;2023-09-07T04:03:39;23.98;;;14.55;;
23608;SDS011;11982;50.810;4.442;2023-09-07T04:06:07;22.63;;;15.07;;
23608;SDS011;11982;50.810;4.442;2023-09-07T04:08:33;25.98;;;14.98;;
23608;SDS011;11982;50.810;4.442;2023-09-07T04:11:02;25.92;;;15.48;;
23608;SDS011;11982;50.810;4.442;2023-09-07T04:13:28;21.20;;;14.23;;
23608;SDS011;11982;50.810;4.442;2023-09-07T04:15:54;22.50;;;14.70;;
23608;SDS011;11982;50.810;4.442;2023-09-07T04:18:20;20.27;;;14.93;;
23608;SDS011;11982;50.810;4.442;2023-09-07T04:20:45;22.00;;;14.85;;
23608;SDS011;11982;50.810;4.442;2023-09-07T04:23:11;22.15;;;14.15;;
23608;SDS011;11982;50.810;4.442;2023-09-07T04:25:37;21.70;;;15.40;;
23608;SDS011;11982;50.810;4.442;2023-09-07T04:28:04;24.25;;;15.02;;
23608;SDS011;11982;50.810;4.442;2023-09-07T04:30:31;21.75;;;14.32;;
23608;SDS011;11982;50.810;4.442;2023-09-07T04:32:57;21.05;;;13.85;;
23608;SDS011;11982;50.810;4.442;2023-09-07T04:35:27;22.73;;;14.27;;
23608;SDS011;11982;50.810;4.442;2023-09-07T04:37:55;21.52;;;14.95;;
23608;SDS011;11982;50.810;4.442;2023-09-07T04:40:21;22.77;;;15.00;;
23608;SDS011;11982;50.810;4.442;2023-09-07T04:42:47;27.00;;;15.55;;
23608;SDS011;11982;50.810;4.442;2023-09-07T04:45:13;22.92;;;15.25;;
23608;SDS011;11982;50.810;4.442;2023-09-07T04:47:39;23.20;;;14.93;;
23608;SDS011;11982;50.810;4.442;2023-09-07T04:50:05;22.90;;;15.15;;
23608;SDS011;11982;50.810;4.442;2023-09-07T04:52:31;27.17;;;15.45;;
23608;SDS011;11982;50.810;4.442;2023-09-07T04:54:57;26.88;;;15.63;;
23608;SDS011;11982;50.810;4.442;2023-09-07T04:57:23;24.08;;;16.42;;
23608;SDS011;11982;50.810;4.442;2023-09-07T04:59:48;26.30;;;15.90;;
23608;SDS011;11982;50.810;4.442;2023-09-07T05:02:14;26.63;;;14.98;;
23608;SDS011;11982;50.810;4.442;2023-09-07T05:04:40;25.52;;;16.40;;
23608;SDS011;11982;50.810;4.442;2023-09-07T05:07:05;22.92;;;15.68;;
23608;SDS011;11982;50.810;4.442;2023-09-07T05:09:31;24.10;;;15.50;;
23608;SDS011;11982;50.810;4.442;2023-09-07T05:11:58;21.45;;;15.38;;
23608;SDS011;11982;50.810;4.442;2023-09-07T05:14:23;25.92;;;16.45;;
23608;SDS011;11982;50.810;4.442;2023-09-07T05:16:50;20.10;;;15.32;;
23608;SDS011;11982;50.810;4.442;2023-09-07T05:19:16;29.63;;;16.30;;
23608;SDS011;11982;50.810;4.442;2023-09-07T05:21:41;25.10;;;16.10;;
23608;SDS011;11982;50.810;4.442;2023-09-07T05:24:07;26.60;;;16.80;;
23608;SDS011;11982;50.810;4.442;2023-09-07T05:26:33;21.10;;;16.27;;
23608;SDS011;11982;50.810;4.442;2023-09-07T05:28:59;23.98;;;17.17;;
23608;SDS011;11982;50.810;4.442;2023-09-07T05:31:25;27.98;;;17.42;;
23608;SDS011;11982;50.810;4.442;2023-09-07T05:33:50;24.83;;;16.23;;
23608;SDS011;11982;50.810;4.442;2023-09-07T05:36:17;21.90;;;16.42;;
23608;SDS011;11982;50.810;4.442;2023-09-07T05:38:43;25.30;;;16.45;;
23608;SDS011;11982;50.810;4.442;2023-09-07T05:41:08;27.00;;;16.80;;
23608;SDS011;11982;50.810;4.442;2023-09-07T05:43:34;24.40;;;16.83;;
23608;SDS011;11982;50.810;4.442;2023-09-07T05:46:00;24.25;;;16.23;;
23608;SDS011;11982;50.810;4.442;2023-09-07T05:48:25;24.08;;;16.10;;
23608;SDS011;11982;50.810;4.442;2023-09-07T05:50:51;25.65;;;17.08;;
23608;SDS011;11982;50.810;4.442;2023-09-07T05:53:18;26.83;;;16.98;;
23608;SDS011;11982;50.810;4.442;2023-09-07T05:55:45;28.38;;;18.40;;
23608;SDS011;11982;50.810;4.442;2023-09-07T05:58:12;26.92;;;17.00;;
23608;SDS011;11982;50.810;4.442;2023-09-07T06:00:37;23.05;;;16.30;;
23608;SDS011;11982;50.810;4.442;2023-09-07T06:03:04;24.85;;;15.55;;
23608;SDS011;11982;50.810;4.442;2023-09-07T06:05:31;26.55;;;16.08;;
23608;SDS011;11982;50.810;4.442;2023-09-07T06:07:58;24.05;;;15.25;;
23608;SDS011;11982;50.810;4.442;2023-09-07T06:10:24;22.42;;;14.90;;
23608;SDS011;11982;50.810;4.442;2023-09-07T06:12:50;18.63;;;14.43;;
23608;SDS011;11982;50.810;4.442;2023-09-07T06:15:16;21.52;;;15.27;;
23608;SDS011;11982;50.810;4.442;2023-09-07T06:17:41;20.08;;;14.90;;
23608;SDS011;11982;50.810;4.442;2023-09-07T06:20:07;20.42;;;15.25;;
23608;SDS011;11982;50.810;4.442;2023-09-07T06:22:34;25.40;;;14.95;;
23608;SDS011;11982;50.810;4.442;2023-09-07T06:24:59;20.70;;;14.45;;
23608;SDS011;11982;50.810;4.442;2023-09-07T06:27:25;24.75;;;15.27;;
23608;SDS011;11982;50.810;4.442;2023-09-07T06:29:51;23.45;;;16.10;;
23608;SDS011;11982;50.810;4.442;2023-09-07T06:32:17;28.48;;;15.80;;
23608;SDS011;11982;50.810;4.442;2023-09-07T06:34:43;21.30;;;14.50;;
23608;SDS011;11982;50.810;4.442;2023-09-07T06:37:11;22.48;;;14.65;;
23608;SDS011;11982;50.810;4.442;2023-09-07T06:39:36;22.15;;;15.27;;
23608;SDS011;11982;50.810;4.442;2023-09-07T06:42:02;22.60;;;14.52;;
23608;SDS011;11982;50.810;4.442;2023-09-07T06:44:28;23.63;;;14.63;;
23608;SDS011;11982;50.810;4.442;2023-09-07T06:46:54;26.45;;;15.50;;
23608;SDS011;11982;50.810;4.442;2023-09-07T06:49:21;28.83;;;14.90;;
23608;SDS011;11982;50.810;4.442;2023-09-07T06:51:47;28.33;;;14.50;;
23608;SDS011;11982;50.810;4.442;2023-09-07T06:54:13;27.27;;;15.00;;
23608;SDS011;11982;50.810;4.442;2023-09-07T06:56:38;28.40;;;14.93;;
23608;SDS011;11982;50.810;4.442;2023-09-07T06:59:04;29.77;;;15.02;;
23608;SDS011;11982;50.810;4.442;2023-09-07T07:01:30;21.13;;;12.60;;
23608;SDS011;11982;50.810;4.442;2023-09-07T07:03:56;20.85;;;12.73;;
23608;SDS011;11982;50.810;4.442;2023-09-07T07:06:22;24.83;;;13.23;;
23608;SDS011;11982;50.810;4.442;2023-09-07T07:08:48;15.82;;;12.63;;
23608;SDS011;11982;50.810;4.442;2023-09-07T07:11:14;21.23;;;12.30;;
23608;SDS011;11982;50.810;4.442;2023-09-07T07:13:39;20.48;;;11.40;;
23608;SDS011;11982;50.810;4.442;2023-09-07T07:16:05;17.08;;;11.52;;
23608;SDS011;11982;50.810;4.442;2023-09-07T07:18:31;16.88;;;11.60;;
23608;SDS011;11982;50.810;4.442;2023-09-07T07:20:57;11.68;;;10.23;;
23608;SDS011;11982;50.810;4.442;2023-09-07T07:23:22;15.05;;;10.80;;
23608;SDS011;11982;50.810;4.442;2023-09-07T07:25:48;16.65;;;11.07;;
23608;SDS011;11982;50.810;4.442;2023-09-07T07:28:14;16.95;;;11.73;;
23608;SDS011;11982;50.810;4.442;2023-09-07T07:30:40;18.48;;;11.25;;
23608;SDS011;11982;50.810;4.442;2023-09-07T07:33:06;18.15;;;11.05;;
23608;SDS011;11982;50.810;4.442;2023-09-07T07:35:32;15.15;;;10.90;;
23608;SDS011;11982;50.810;4.442;2023-09-07T07:38:00;21.13;;;11.18;;
23608;SDS011;11982;50.810;4.442;2023-09-07T07:40:26;19.65;;;11.15;;
23608;SDS011;11982;50.810;4.442;2023-09-07T07:42:52;18.75;;;10.55;;
23608;SDS011;11982;50.810;4.442;2023-09-07T07:45:18;14.43;;;10.50;;
23608;SDS011;11982;50.810;4.442;2023-09-07T07:47:50;19.58;;;10.23;;
23608;SDS011;11982;50.810;4.442;2023-09-07T07:50:16;22.17;;;10.32;;
23608;SDS011;11982;50.810;4.442;2023-09-07T07:52:43;16.60;;;9.27;;
23608;SDS011;11982;50.810;4.442;2023-09-07T07:55:09;12.10;;;8.45;;
23608;SDS011;11982;50.810;4.442;2023-09-07T07:57:36;14.32;;;8.40;;
23608;SDS011;11982;50.810;4.442;2023-09-07T08:00:02;10.25;;;7.32;;
23608;SDS011;11982;50.810;4.442;2023-09-07T08:02:29;8.63;;;7.43;;
23608;SDS011;11982;50.810;4.442;2023-09-07T08:04:55;10.25;;;7.05;;
23608;SDS011;11982;50.810;4.442;2023-09-07T08:07:20;10.23;;;7.50;;
23608;SDS011;11982;50.810;4.442;2023-09-07T08:09:47;13.45;;;7.80;;
23608;SDS011;11982;50.810;4.442;2023-09-07T08:12:12;10.32;;;7.35;;
23608;SDS011;11982;50.810;4.442;2023-09-07T08:14:38;15.27;;;7.07;;
23608;SDS011;11982;50.810;4.442;2023-09-07T08:17:04;9.27;;;7.18;;
23608;SDS011;11982;50.810;4.442;2023-09-07T08:19:30;9.07;;;7.22;;
23608;SDS011;11982;50.810;4.442;2023-09-07T08:21:56;9.93;;;7.15;;
23608;SDS011;11982;50.810;4.442;2023-09-07T08:24:23;11.57;;;6.93;;
23608;SDS011;11982;50.810;4.442;2023-09-07T08:26:48;8.85;;;7.22;;
23608;SDS011;11982;50.810;4.442;2023-09-07T08:29:16;8.75;;;6.63;;
23608;SDS011;11982;50.810;4.442;2023-09-07T08:31:45;7.43;;;5.93;;
23608;SDS011;11982;50.810;4.442;2023-09-07T08:34:13;9.90;;;6.10;;
23608;SDS011;11982;50.810;4.442;2023-09-07T08:36:44;9.27;;;6.13;;
23608;SDS011;11982;50.810;4.442;2023-09-07T08:39:11;8.10;;;6.10;;
23608;SDS011;11982;50.810;4.442;2023-09-07T08:41:38;9.13;;;6.10;;
23608;SDS011;11982;50.810;4.442;2023-09-07T08:44:12;8.30;;;6.10;;
23608;SDS011;11982;50.810;4.442;2023-09-07T08:46:44;10.15;;;6.05;;
23608;SDS011;11982;50.810;4.442;2023-09-07T08:49:10;8.20;;;5.95;;
23608;SDS011;11982;50.810;4.442;2023-09-07T08:51:36;8.82;;;6.13;;
23608;SDS011;11982;50.810;4.442;2023-09-07T08:54:06;6.38;;;5.32;;
23608;SDS011;11982;50.810;4.442;2023-09-07T08:56:33;9.27;;;6.03;;
23608;SDS011;11982;50.810;4.442;2023-09-07T08:58:59;12.52;;;6.10;;
23608;SDS011;11982;50.810;4.442;2023-09-07T09:01:24;11.10;;;5.82;;
23608;SDS011;11982;50.810;4.442;2023-09-07T09:03:50;10.50;;;6.10;;
23608;SDS011;11982;50.810;4.442;2023-09-07T09:06:17;15.38;;;6.68;;
23608;SDS011;11982;50.810;4.442;2023-09-07T09:08:44;7.45;;;5.45;;
23608;SDS011;11982;50.810;4.442;2023-09-07T09:11:11;7.97;;;6.47;;
23608;SDS011;11982;50.810;4.442;2023-09-07T09:13:39;9.25;;;6.10;;
23608;SDS011;11982;50.810;4.442;2023-09-07T09:16:06;10.07;;;5.55;;
23608;SDS011;11982;50.810;4.442;2023-09-07T09:18:32;10.75;;;5.85;;
23608;SDS011;11982;50.810;4.442;2023-09-07T09:20:58;8.13;;;6.13;;
23608;SDS011;11982;50.810;4.442;2023-09-07T09:23:24;8.43;;;5.88;;
23608;SDS011;11982;50.810;4.442;2023-09-07T09:25:56;8.43;;;5.57;;
23608;SDS011;11982;50.810;4.442;2023-09-07T09:28:22;9.07;;;6.20;;
23608;SDS011;11982;50.810;4.442;2023-09-07T09:30:48;7.80;;;6.00;;
23608;SDS011;11982;50.810;4.442;2023-09-07T09:33:14;8.27;;;5.93;;
23608;SDS011;11982;50.810;4.442;2023-09-07T09:35:40;7.90;;;5.95;;
23608;SDS011;11982;50.810;4.442;2023-09-07T09:38:07;7.05;;;5.95;;
23608;SDS011;11982;50.810;4.442;2023-09-07T09:40:35;10.45;;;5.63;;
23608;SDS011;11982;50.810;4.442;2023-09-07T09:43:03;7.93;;;5.75;;
23608;SDS011;11982;50.810;4.442;2023-09-07T09:45:30;6.68;;;5.90;;
23608;SDS011;11982;50.810;4.442;2023-09-07T09:47:57;8.15;;;6.65;;
23608;SDS011;11982;50.810;4.442;2023-09-07T09:50:26;7.60;;;6.03;;
23608;SDS011;11982;50.810;4.442;2023-09-07T09:52:53;10.63;;;6.30;;
23608;SDS011;11982;50.810;4.442;2023-09-07T09:55:19;11.63;;;7.22;;
23608;SDS011;11982;50.810;4.442;2023-09-07T09:57:46;7.07;;;6.00;;
23608;SDS011;11982;50.810;4.442;2023-09-07T10:00:11;10.98;;;6.15;;
23608;SDS011;11982;50.810;4.442;2023-09-07T10:03:37;11.70;;;5.90;;
23608;SDS011;11982;50.810;4.442;2023-09-07T10:05:40;8.27;;;6.00;;
23608;SDS011;11982;50.810;4.442;2023-09-07T10:08:11;12.13;;;6.10;;
23608;SDS011;11982;50.810;4.442;2023-09-07T10:10:38;8.35;;;6.43;;
23608;SDS011;11982;50.810;4.442;2023-09-07T10:13:06;9.05;;;5.95;;
23608;SDS011;11982;50.810;4.442;2023-09-07T10:15:32;10.88;;;5.72;;
23608;SDS011;11982;50.810;4.442;2023-09-07T10:23:16;11.70;;;5.43;;
23608;SDS011;11982;50.810;4.442;2023-09-07T10:25:42;10.52;;;5.43;;
23608;SDS011;11982;50.810;4.442;2023-09-07T10:28:20;7.78;;;4.95;;
23608;SDS011;11982;50.810;4.442;2023-09-07T10:31:02;9.65;;;5.82;;
23608;SDS011;11982;50.810;4.442;2023-09-07T10:33:34;10.20;;;5.30;;
23608;SDS011;11982;50.810;4.442;2023-09-07T10:36:01;5.38;;;4.80;;
23608;SDS011;11982;50.810;4.442;2023-09-07T10:38:28;7.60;;;5.63;;
23608;SDS011;11982;50.810;4.442;2023-09-07T10:40:56;9.63;;;5.28;;
23608;SDS011;11982;50.810;4.442;2023-09-07T10:43:24;8.63;;;5.60;;
23608;SDS011;11982;50.810;4.442;2023-09-07T10:45:51;7.50;;;5.63;;
23608;SDS011;11982;50.810;4.442;2023-09-07T10:48:16;6.47;;;5.30;;
23608;SDS011;11982;50.810;4.442;2023-09-07T10:50:43;7.82;;;5.05;;
23608;SDS011;11982;50.810;4.442;2023-09-07T10:53:12;11.02;;;5.05;;
23608;SDS011;11982;50.810;4.442;2023-09-07T10:55:41;6.35;;;4.55;;
23608;SDS011;11982;50.810;4.442;2023-09-07T10:58:08;5.97;;;5.35;;
23608;SDS011;11982;50.810;4.442;2023-09-07T11:00:35;10.13;;;4.75;;
23608;SDS011;11982;50.810;4.442;2023-09-07T11:03:08;5.90;;;4.65;;
23608;SDS011;11982;50.810;4.442;2023-09-07T11:05:35;6.55;;;4.85;;
23608;SDS011;11982;50.810;4.442;2023-09-07T11:08:04;8.32;;;4.63;;
23608;SDS011;11982;50.810;4.442;2023-09-07T11:10:34;5.05;;;4.55;;
23608;SDS011;11982;50.810;4.442;2023-09-07T11:13:01;4.65;;;4.20;;
23608;SDS011;11982;50.810;4.442;2023-09-07T11:15:29;5.47;;;4.70;;
23608;SDS011;11982;50.810;4.442;2023-09-07T11:17:55;7.13;;;4.72;;
23608;SDS011;11982;50.810;4.442;2023-09-07T11:20:22;8.38;;;4.70;;
23608;SDS011;11982;50.810;4.442;2023-09-07T11:22:49;5.32;;;4.45;;
23608;SDS011;11982;50.810;4.442;2023-09-07T11:25:15;6.10;;;4.70;;
23608;SDS011;11982;50.810;4.442;2023-09-07T11:27:41;9.50;;;4.47;;
23608;SDS011;11982;50.810;4.442;2023-09-07T11:30:07;5.70;;;4.50;;
23608;SDS011;11982;50.810;4.442;2023-09-07T11:32:35;6.70;;;4.50;;
23608;SDS011;11982;50.810;4.442;2023-09-07T11:35:01;8.45;;;4.63;;
23608;SDS011;11982;50.810;4.442;2023-09-07T11:37:27;6.07;;;4.65;;
23608;SDS011;11982;50.810;4.442;2023-09-07T11:39:53;5.88;;;4.43;;
23608;SDS011;11982;50.810;4.442;2023-09-07T11:42:19;6.85;;;4.35;;
23608;SDS011;11982;50.810;4.442;2023-09-07T11:44:45;6.47;;;4.47;;
23608;SDS011;11982;50.810;4.442;2023-09-07T11:47:10;8.93;;;4.70;;
23608;SDS011;11982;50.810;4.442;2023-09-07T11:49:36;7.43;;;4.28;;
23608;SDS011;11982;50.810;4.442;2023-09-07T11:52:02;5.50;;;4.55;;
23608;SDS011;11982;50.810;4.442;2023-09-07T11:54:27;4.75;;;4.20;;
23608;SDS011;11982;50.810;4.442;2023-09-07T11:56:53;7.88;;;4.20;;
23608;SDS011;11982;50.810;4.442;2023-09-07T11:59:19;5.25;;;4.40;;
23608;SDS011;11982;50.810;4.442;2023-09-07T12:01:44;10.75;;;4.35;;
23608;SDS011;11982;50.810;4.442;2023-09-07T12:04:10;9.60;;;4.70;;
23608;SDS011;11982;50.810;4.442;2023-09-07T12:06:37;6.28;;;4.43;;
23608;SDS011;11982;50.810;4.442;2023-09-07T12:09:04;5.65;;;4.32;;
23608;SDS011;11982;50.810;4.442;2023-09-07T12:11:31;7.53;;;4.18;;
23608;SDS011;11982;50.810;4.442;2023-09-07T12:13:57;7.15;;;4.53;;
23608;SDS011;11982;50.810;4.442;2023-09-07T12:16:25;6.88;;;4.10;;
23608;SDS011;11982;50.810;4.442;2023-09-07T12:18:51;8.45;;;5.15;;
23608;SDS011;11982;50.810;4.442;2023-09-07T12:21:17;9.15;;;5.00;;
23608;SDS011;11982;50.810;4.442;2023-09-07T12:23:42;6.10;;;4.40;;
23608;SDS011;11982;50.810;4.442;2023-09-07T12:26:08;7.18;;;4.80;;
23608;SDS011;11982;50.810;4.442;2023-09-07T12:28:34;6.25;;;4.50;;
23608;SDS011;11982;50.810;4.442;2023-09-07T12:31:00;5.53;;;4.80;;
23608;SDS011;11982;50.810;4.442;2023-09-07T12:33:25;7.47;;;4.70;;
23608;SDS011;11982;50.810;4.442;2023-09-07T12:35:51;5.63;;;4.82;;
23608;SDS011;11982;50.810;4.442;2023-09-07T12:38:17;6.05;;;4.65;;
23608;SDS011;11982;50.810;4.442;2023-09-07T12:40:45;6.00;;;5.05;;
23608;SDS011;11982;50.810;4.442;2023-09-07T12:43:10;6.88;;;4.57;;
23608;SDS011;11982;50.810;4.442;2023-09-07T12:45:36;6.25;;;3.70;;
23608;SDS011;11982;50.810;4.442;2023-09-07T12:48:02;7.55;;;4.72;;
23608;SDS011;11982;50.810;4.442;2023-09-07T12:50:27;9.57;;;4.80;;
23608;SDS011;11982;50.810;4.442;2023-09-07T12:52:53;8.75;;;4.72;;
23608;SDS011;11982;50.810;4.442;2023-09-07T12:55:19;5.45;;;4.60;;
23608;SDS011;11982;50.810;4.442;2023-09-07T12:57:45;5.10;;;4.30;;
23608;SDS011;11982;50.810;4.442;2023-09-07T13:00:11;5.80;;;4.68;;
23608;SDS011;11982;50.810;4.442;2023-09-07T13:02:39;8.45;;;5.47;;
23608;SDS011;11982;50.810;4.442;2023-09-07T13:05:04;7.05;;;4.57;;
23608;SDS011;11982;50.810;4.442;2023-09-07T13:07:31;6.30;;;4.75;;
23608;SDS011;11982;50.810;4.442;2023-09-07T13:10:03;8.23;;;4.63;;
23608;SDS011;11982;50.810;4.442;2023-09-07T13:12:32;9.90;;;4.70;;
23608;SDS011;11982;50.810;4.442;2023-09-07T13:14:58;8.32;;;4.65;;
23608;SDS011;11982;50.810;4.442;2023-09-07T13:17:24;12.40;;;5.20;;
23608;SDS011;11982;50.810;4.442;2023-09-07T13:19:50;8.70;;;4.72;;
23608;SDS011;11982;50.810;4.442;2023-09-07T13:22:16;8.90;;;4.47;;
23608;SDS011;11982;50.810;4.442;2023-09-07T13:24:42;9.50;;;5.03;;
23608;SDS011;11982;50.810;4.442;2023-09-07T13:27:08;7.40;;;4.88;;
23608;SDS011;11982;50.810;4.442;2023-09-07T13:29:35;9.05;;;4.82;;
23608;SDS011;11982;50.810;4.442;2023-09-07T13:32:01;6.30;;;4.90;;
23608;SDS011;11982;50.810;4.442;2023-09-07T13:34:27;10.27;;;4.88;;
23608;SDS011;11982;50.810;4.442;2023-09-07T13:36:52;7.15;;;4.55;;
23608;SDS011;11982;50.810;4.442;2023-09-07T13:39:18;7.03;;;4.53;;
23608;SDS011;11982;50.810;4.442;2023-09-07T13:41:44;7.68;;;4.90;;
23608;SDS011;11982;50.810;4.442;2023-09-07T13:44:11;6.43;;;4.85;;
23608;SDS011;11982;50.810;4.442;2023-09-07T13:46:36;8.43;;;4.90;;
23608;SDS011;11982;50.810;4.442;2023-09-07T13:49:02;5.28;;;4.78;;
23608;SDS011;11982;50.810;4.442;2023-09-07T13:51:28;11.68;;;5.05;;
23608;SDS011;11982;50.810;4.442;2023-09-07T13:53:56;8.90;;;4.80;;
23608;SDS011;11982;50.810;4.442;2023-09-07T13:56:22;9.07;;;4.97;;
23608;SDS011;11982;50.810;4.442;2023-09-07T13:58:48;7.38;;;4.70;;
23608;SDS011;11982;50.810;4.442;2023-09-07T14:01:13;7.43;;;4.47;;
23608;SDS011;11982;50.810;4.442;2023-09-07T14:03:39;7.97;;;5.03;;
23608;SDS011;11982;50.810;4.442;2023-09-07T14:06:05;8.30;;;4.45;;
23608;SDS011;11982;50.810;4.442;2023-09-07T14:08:30;7.68;;;4.50;;
23608;SDS011;11982;50.810;4.442;2023-09-07T14:10:58;9.65;;;5.03;;
23608;SDS011;11982;50.810;4.442;2023-09-07T14:13:23;7.97;;;4.80;;
23608;SDS011;11982;50.810;4.442;2023-09-07T14:15:49;5.00;;;4.20;;
23608;SDS011;11982;50.810;4.442;2023-09-07T14:18:15;4.75;;;4.35;;
23608;SDS011;11982;50.810;4.442;2023-09-07T14:20:41;4.68;;;4.10;;
23608;SDS011;11982;50.810;4.442;2023-09-07T14:23:06;9.00;;;4.38;;
23608;SDS011;11982;50.810;4.442;2023-09-07T14:25:32;8.00;;;4.07;;
23608;SDS011;11982;50.810;4.442;2023-09-07T14:27:58;4.90;;;3.90;;
23608;SDS011;11982;50.810;4.442;2023-09-07T14:30:24;5.75;;;4.20;;
23608;SDS011;11982;50.810;4.442;2023-09-07T14:32:50;7.60;;;4.50;;
23608;SDS011;11982;50.810;4.442;2023-09-07T14:35:16;5.80;;;4.30;;